Time;durP1;ratioP1;P1;durP2;ratioP2;P2;SDS_P1;SDS_P2;PMS_P1;PMS_P2;Temp;Humidity;BMP_temperature;BMP_pressure;BME280_temperature;BME280_humidity;BME280_pressure;Samples;Min_cycle;Max_cycle;Signal;HPM_P1;HPM_P2
2021/08/17 04:48:59;;;;;;;7.87;5.50;;;;;;;15.76;97.25;98439.41;125172;1093;64361;-86
2021/08/17 04:51:27;;;;;;;7.23;5.03;;;;;;;15.79;96.90;98439.11;125006;1093;64287;-86
2021/08/17 04:53:55;;;;;;;4.53;4.13;;;;;;;15.80;96.95;98442.67;125055;1093;64312;-87
2021/08/17 04:56:22;;;;;;;7.50;4.23;;;;;;;15.81;96.64;98438.97;125065;1093;64263;-86
2021/08/17 04:58:49;;;;;;;6.97;3.90;;;;;;;15.83;96.32;98439.67;125046;1093;64219;-86
2021/08/17 05:01:16;;;;;;;7.80;4.53;;;;;;;15.85;96.38;98448.44;125066;1093;64715;-86
2021/08/17 05:03:43;;;;;;;4.70;3.70;;;;;;;15.87;96.09;98448.27;125069;1093;64310;-86
2021/08/17 05:06:10;;;;;;;4.23;3.50;;;;;;;15.85;95.54;98456.50;125061;1092;64184;-86
2021/08/17 05:08:39;;;;;;;6.20;3.60;;;;;;;15.82;95.72;98454.09;125041;1093;64215;-86
2021/08/17 05:11:06;;;;;;;8.80;3.77;;;;;;;15.77;95.31;98465.30;125005;1093;64409;-86
2021/08/17 05:13:33;;;;;;;4.87;3.63;;;;;;;15.72;95.59;98467.59;125060;1093;64301;-86
2021/08/17 05:16:00;;;;;;;5.93;3.67;;;;;;;15.71;95.43;98473.09;125055;1093;64265;-86
2021/08/17 05:18:32;;;;;;;5.67;3.50;;;;;;;15.66;95.29;98480.72;125057;1093;64229;-87
2021/08/17 05:21:00;;;;;;;5.80;3.67;;;;;;;15.60;95.30;98490.22;125114;1092;64268;-87
2021/08/17 05:23:29;;;;;;;4.20;3.60;;;;;;;15.54;94.48;98501.56;125065;1093;64239;-86
2021/08/17 05:25:56;;;;;;;4.37;3.40;;;;;;;15.45;94.30;98502.42;125122;1093;64441;-86
2021/08/17 05:28:23;;;;;;;5.10;3.20;;;;;;;15.41;94.72;98511.77;125045;1093;64268;-86
2021/08/17 05:30:51;;;;;;;3.20;2.53;;;;;;;15.26;91.63;98522.95;125062;1092;64265;-84
2021/08/17 05:33:18;;;;;;;3.53;2.63;;;;;;;15.05;91.42;98519.59;125036;1093;64188;-86
2021/08/17 05:35:45;;;;;;;4.33;2.07;;;;;;;14.86;90.52;98529.34;124892;1093;64306;-86
2021/08/17 05:38:13;;;;;;;4.07;1.80;;;;;;;14.70;90.58;98529.06;125054;1093;64290;-86
2021/08/17 05:40:40;;;;;;;2.10;1.87;;;;;;;14.64;89.22;98541.20;125060;1093;64264;-86
2021/08/17 05:43:07;;;;;;;2.77;1.77;;;;;;;14.51;89.89;98540.59;125062;1093;64267;-86
2021/08/17 05:45:34;;;;;;;2.77;2.30;;;;;;;14.45;89.34;98538.44;125052;1093;64238;-86
2021/08/17 05:48:01;;;;;;;4.55;2.15;;;;;;;14.43;89.31;98551.16;124868;1092;64511;-86
2021/08/17 05:50:29;;;;;;;1.90;1.60;;;;;;;14.45;89.65;98560.73;125093;1093;64319;-86
2021/08/17 05:52:56;;;;;;;3.60;1.87;;;;;;;14.43;90.06;98562.73;125083;1093;64268;-86
2021/08/17 05:55:23;;;;;;;5.70;2.10;;;;;;;14.41;90.36;98558.48;125171;1093;64280;-86
2021/08/17 05:57:58;;;;;;;2.53;2.00;;;;;;;14.40;89.75;98556.77;125097;1093;64284;-86
2021/08/17 06:00:27;;;;;;;5.23;2.33;;;;;;;14.32;89.87;98552.09;125076;1093;64428;-86
2021/08/17 06:02:54;;;;;;;2.93;2.00;;;;;;;14.32;89.88;98552.09;125075;1093;64290;-86
2021/08/17 06:05:22;;;;;;;4.23;1.80;;;;;;;14.36;90.25;98556.21;125138;1093;64281;-86
2021/08/17 06:07:51;;;;;;;3.10;1.90;;;;;;;14.38;89.77;98559.61;125080;1093;64225;-86
2021/08/17 06:10:19;;;;;;;3.85;2.50;;;;;;;14.40;90.08;98565.69;125095;1093;64241;-86
2021/08/17 06:12:47;;;;;;;3.20;2.03;;;;;;;14.38;89.25;98577.53;125039;1093;64273;-86
2021/08/17 06:15:15;;;;;;;2.63;2.10;;;;;;;14.37;89.55;98575.81;125086;1093;64306;-86
2021/08/17 06:17:43;;;;;;;3.57;2.00;;;;;;;14.40;90.00;98575.54;124974;1093;64303;-86
2021/08/17 06:20:11;;;;;;;2.20;2.00;;;;;;;14.38;89.41;98590.94;125126;1093;64263;-86
2021/08/17 06:22:39;;;;;;;3.53;1.50;;;;;;;14.37;89.23;98590.06;125104;1092;64449;-86
2021/08/17 06:25:07;;;;;;;1.83;1.63;;;;;;;14.35;89.34;98602.78;125093;1093;64268;-85
2021/08/17 06:27:36;;;;;;;4.00;2.20;;;;;;;14.30;89.49;98610.38;125062;1092;64326;-86
2021/08/17 06:30:06;;;;;;;3.73;1.77;;;;;;;14.31;89.68;98616.59;125116;1093;64659;-86
2021/08/17 06:32:34;;;;;;;5.30;2.20;;;;;;;14.30;89.56;98617.55;125119;1093;64217;-86
2021/08/17 06:35:01;;;;;;;3.67;2.23;;;;;;;14.27;89.37;98624.91;125070;1093;64393;-86
2021/08/17 06:37:29;;;;;;;3.93;2.30;;;;;;;14.21;89.15;98636.14;124870;1093;64364;-86
2021/08/17 06:39:57;;;;;;;2.80;1.53;;;;;;;14.18;89.21;98638.25;125030;1093;64304;-86
2021/08/17 06:42:24;;;;;;;2.30;1.67;;;;;;;14.09;88.43;98647.95;125044;1092;64245;-86
2021/08/17 06:44:51;;;;;;;2.73;1.90;;;;;;;13.97;88.75;98646.33;124985;1093;64291;-87
2021/08/17 06:47:18;;;;;;;3.50;2.13;;;;;;;13.87;88.92;98661.49;125070;1093;64609;-86
2021/08/17 06:49:45;;;;;;;3.43;1.90;;;;;;;13.78;88.94;98663.98;125150;1093;64184;-86
2021/08/17 06:52:12;;;;;;;3.73;2.00;;;;;;;13.79;89.95;98665.67;125032;1093;64309;-86
2021/08/17 06:54:40;;;;;;;3.67;1.90;;;;;;;13.79;89.22;98679.06;124917;1093;64289;-86
2021/08/17 06:57:07;;;;;;;6.13;2.13;;;;;;;13.71;88.99;98683.38;125063;1092;64724;-86
2021/08/17 06:59:34;;;;;;;3.20;1.70;;;;;;;13.66;89.34;98690.95;125157;1093;64364;-86
2021/08/17 07:02:01;;;;;;;4.50;2.07;;;;;;;13.57;89.24;98696.11;125010;1093;64338;-86
2021/08/17 07:04:29;;;;;;;3.33;2.00;;;;;;;13.56;89.64;98704.25;125054;1091;64406;-86
2021/08/17 07:06:56;;;;;;;3.07;1.87;;;;;;;13.58;89.49;98716.53;125079;1091;64287;-87
2021/08/17 07:09:23;;;;;;;4.03;1.70;;;;;;;13.51;89.67;98711.85;125045;1093;64287;-86
2021/08/17 07:11:50;;;;;;;2.67;1.70;;;;;;;13.50;90.05;98715.48;125061;1093;64297;-86
2021/08/17 07:14:17;;;;;;;6.40;2.47;;;;;;;13.49;89.67;98729.86;125056;1092;64296;-86
2021/08/17 07:16:44;;;;;;;5.30;2.20;;;;;;;13.51;89.95;98733.27;125057;1092;64265;-86
2021/08/17 07:19:12;;;;;;;3.47;2.00;;;;;;;13.58;89.89;98739.79;125039;1092;64342;-86
2021/08/17 07:21:39;;;;;;;3.27;1.87;;;;;;;13.61;89.89;98752.92;125072;1093;64290;-86
2021/08/17 07:24:06;;;;;;;3.50;1.90;;;;;;;13.60;90.16;98752.08;125080;1093;64218;-86
2021/08/17 07:26:34;;;;;;;3.40;1.70;;;;;;;13.69;90.14;98741.56;125034;1092;64280;-86
2021/08/17 07:29:01;;;;;;;3.73;2.20;;;;;;;13.87;89.90;98742.70;125043;1093;64393;-86
2021/08/17 07:31:28;;;;;;;5.57;2.07;;;;;;;14.09;89.54;98740.90;125048;1092;64285;-86
2021/08/17 07:33:55;;;;;;;3.23;1.77;;;;;;;14.34;89.13;98740.47;125044;1093;64191;-86
2021/08/17 07:36:22;;;;;;;4.07;1.93;;;;;;;14.56;88.41;98742.18;125042;1093;64193;-86
2021/08/17 07:38:49;;;;;;;4.50;1.90;;;;;;;14.70;86.33;98746.33;125050;1091;64364;-87
2021/08/17 07:41:17;;;;;;;2.63;1.47;;;;;;;14.73;85.94;98739.84;125049;1093;64310;-87
2021/08/17 07:43:44;;;;;;;2.70;1.63;;;;;;;14.91;86.81;98733.69;125038;1093;64247;-87
2021/08/17 07:46:12;;;;;;;2.93;2.10;;;;;;;15.14;86.00;98736.16;125041;1092;64239;-87
2021/08/17 07:48:39;;;;;;;3.97;2.27;;;;;;;15.32;86.11;98726.45;125063;1092;64270;-86
2021/08/17 07:51:06;;;;;;;3.73;1.90;;;;;;;15.51;85.10;98722.92;125060;1093;64306;-86
2021/08/17 07:53:34;;;;;;;4.00;2.40;;;;;;;15.67;84.95;98725.05;125026;1092;64294;-87
2021/08/17 07:56:01;;;;;;;2.85;2.10;;;;;;;15.86;84.73;98720.69;125292;1093;64225;-87
2021/08/17 07:58:29;;;;;;;4.93;2.50;;;;;;;16.08;84.59;98727.58;125035;1093;64263;-86
2021/08/17 08:00:56;;;;;;;3.53;2.33;;;;;;;16.36;83.97;98723.14;125000;1093;64250;-86
2021/08/17 08:03:23;;;;;;;3.60;2.53;;;;;;;16.58;83.81;98729.98;125020;1091;64386;-87
2021/08/17 08:05:50;;;;;;;5.13;2.90;;;;;;;16.62;83.17;98732.24;125068;1091;64277;-87
2021/08/17 08:08:18;;;;;;;7.60;4.27;;;;;;;16.73;83.02;98741.97;125042;1092;64283;-87
2021/08/17 08:10:45;;;;;;;6.13;3.50;;;;;;;16.83;82.30;98740.13;125044;1092;64280;-86
2021/08/17 08:13:12;;;;;;;5.33;3.73;;;;;;;16.85;81.33;98730.06;125042;1093;64251;-87
2021/08/17 08:15:39;;;;;;;4.45;3.30;;;;;;;16.72;81.26;98734.91;125025;1093;64268;-87
2021/08/17 08:18:07;;;;;;;5.50;2.80;;;;;;;16.66;81.97;98744.39;125071;1092;64283;-87
2021/08/17 08:20:35;;;;;;;6.40;2.97;;;;;;;16.58;80.46;98754.20;125071;1092;64386;-87
2021/08/17 08:23:05;;;;;;;5.17;3.20;;;;;;;16.46;80.62;98745.47;125019;1093;64261;-87
2021/08/17 08:25:33;;;;;;;8.57;4.10;;;;;;;16.47;80.61;98739.09;125049;1092;64366;-87
2021/08/17 08:28:00;;;;;;;5.53;2.70;;;;;;;16.61;80.58;98727.88;125065;1091;64453;-87
2021/08/17 08:30:28;;;;;;;4.43;2.70;;;;;;;16.80;79.96;98721.58;125087;1091;64226;-87
2021/08/17 08:32:55;;;;;;;6.87;3.73;;;;;;;17.07;78.34;98720.72;125044;1093;64180;-87
2021/08/17 08:35:22;;;;;;;6.13;3.87;;;;;;;17.19;78.48;98737.50;125068;1093;64264;-87
2021/08/17 08:37:49;;;;;;;6.17;3.03;;;;;;;17.22;77.70;98736.36;125035;1093;64264;-87
2021/08/17 08:40:17;;;;;;;7.13;3.23;;;;;;;17.21;76.58;98732.82;125086;1093;64264;-87
2021/08/17 08:42:46;;;;;;;5.77;2.73;;;;;;;17.30;77.37;98748.09;125087;1093;64245;-85
2021/08/17 08:45:13;;;;;;;5.60;2.93;;;;;;;17.29;77.00;98764.39;125085;1093;64275;-87
2021/08/17 08:47:40;;;;;;;6.23;3.00;;;;;;;17.34;76.54;98751.31;125036;1093;64284;-87
2021/08/17 08:50:10;;;;;;;7.50;4.10;;;;;;;17.38;76.45;98759.92;125072;1091;64303;-87
2021/08/17 08:52:38;;;;;;;8.47;5.90;;;;;;;17.42;76.49;98756.78;125104;1091;64284;-87
2021/08/17 08:55:07;;;;;;;10.13;5.60;;;;;;;17.58;76.48;98763.35;125095;1093;64344;-87
2021/08/17 08:57:36;;;;;;;9.60;5.23;;;;;;;17.80;76.63;98767.45;125053;1092;64207;-88
2021/08/17 09:00:06;;;;;;;5.23;3.07;;;;;;;18.23;76.42;98763.97;125150;1093;64359;-88
2021/08/17 09:02:33;;;;;;;5.00;2.50;;;;;;;18.59;75.37;98767.42;125151;1093;64290;-84
2021/08/17 09:05:01;;;;;;;5.53;2.57;;;;;;;19.03;75.18;98778.13;125080;1092;64412;-86
2021/08/17 09:07:47;;;;;;;5.43;3.63;;;;;;;19.40;73.82;98778.77;125164;1092;64434;-86
2021/08/17 09:10:20;;;;;;;5.63;2.93;;;;;;;19.66;73.25;98765.16;125054;1093;64287;-86
2021/08/17 09:12:50;;;;;;;5.90;3.50;;;;;;;19.62;70.01;98767.36;125039;1093;64277;-87
2021/08/17 09:15:20;;;;;;;5.33;2.70;;;;;;;19.53;71.73;98774.58;125082;1092;64212;-86
2021/08/17 09:18:00;;;;;;;3.50;2.73;;;;;;;19.80;71.54;98769.96;124940;1093;64225;-84
2021/08/17 09:20:44;;;;;;;5.35;2.60;;;;;;;19.98;71.34;98780.60;125084;1093;64348;-86
2021/08/17 09:23:30;;;;;;;6.23;2.27;;;;;;;20.15;69.84;98781.47;125029;1092;64269;-87
2021/08/17 09:25:59;;;;;;;5.65;2.80;;;;;;;20.02;66.18;98781.13;125218;1092;64267;-86
2021/08/17 09:28:29;;;;;;;6.00;3.00;;;;;;;19.91;69.04;98777.73;125112;1092;64337;-86
2021/08/17 09:30:58;;;;;;;5.48;2.70;;;;;;;20.13;69.05;98781.63;125031;1093;64279;-86
2021/08/17 09:33:38;;;;;;;4.85;2.30;;;;;;;20.32;69.10;98791.26;125083;1093;64265;-86
2021/08/17 09:36:08;;;;;;;6.25;2.98;;;;;;;20.40;68.40;98785.00;125074;1093;64686;-84
2021/08/17 09:38:36;;;;;;;5.73;2.87;;;;;;;20.52;68.18;98793.63;125052;1092;64242;-85
2021/08/17 09:41:18;;;;;;;3.87;2.70;;;;;;;20.65;67.64;98801.27;125066;1093;64213;-84
2021/08/17 09:44:04;;;;;;;2.70;2.00;;;;;;;20.60;64.30;98786.36;125112;1093;64421;-85
2021/08/17 09:46:37;;;;;;;3.25;2.20;;;;;;;20.04;66.31;98803.46;125056;1091;64332;-84
2021/08/17 09:49:30;;;;;;;3.10;2.13;;;;;;;19.81;67.03;98804.09;125028;1093;64265;-84
2021/08/17 09:52:06;;;;;;;3.83;1.87;;;;;;;19.84;64.46;98805.62;125109;1093;64269;-84
2021/08/17 09:54:38;;;;;;;3.23;2.00;;;;;;;19.98;64.68;98802.24;125075;1091;64276;-84
2021/08/17 09:57:06;;;;;;;2.33;1.80;;;;;;;19.76;62.67;98805.61;125066;1093;64385;-84
2021/08/17 09:59:36;;;;;;;6.70;2.70;;;;;;;19.78;66.09;98809.00;125063;1091;64239;-84
2021/08/17 10:02:04;;;;;;;;;;;;;;;19.88;65.44;98807.83;125131;1092;64210;-84
2021/08/17 10:04:32;;;;;;;4.57;2.40;;;;;;;19.83;65.16;98812.89;125061;1093;64339;-84
2021/08/17 10:07:01;;;;;;;3.20;2.47;;;;;;;19.71;65.69;98820.45;125029;1092;64213;-84
2021/08/17 10:09:30;;;;;;;5.48;3.20;;;;;;;19.89;65.83;98830.31;125114;1093;64319;-85
2021/08/17 10:11:57;;;;;;;6.20;3.10;;;;;;;19.87;65.78;98835.03;125129;1093;64295;-85
2021/08/17 10:14:24;;;;;;;3.43;2.50;;;;;;;19.76;65.73;98829.95;125169;1093;64284;-84
2021/08/17 10:16:52;;;;;;;3.40;2.50;;;;;;;19.66;66.10;98832.75;125132;1092;64268;-85
2021/08/17 10:19:28;;;;;;;3.17;2.10;;;;;;;19.66;66.33;98822.80;125144;1093;64287;-84
2021/08/17 10:21:59;;;;;;;3.90;2.73;;;;;;;19.84;66.08;98828.09;125116;1093;64287;-85
2021/08/17 10:24:39;;;;;;;3.93;2.77;;;;;;;20.06;64.93;98823.89;125148;1093;64265;-85
2021/08/17 10:27:24;;;;;;;3.63;3.07;;;;;;;20.33;65.39;98813.78;125128;1093;64271;-85
2021/08/17 10:29:56;;;;;;;2.50;2.10;;;;;;;20.60;64.55;98816.15;125094;1092;64269;-85
2021/08/17 10:32:45;;;;;;;2.47;2.20;;;;;;;20.80;64.19;98818.47;125075;1092;64303;-85
2021/08/17 10:35:31;;;;;;;2.90;2.13;;;;;;;20.92;64.08;98825.23;125094;1092;64257;-84
2021/08/17 10:38:07;;;;;;;2.50;2.05;;;;;;;21.02;63.54;98820.46;125106;1093;64293;-85
2021/08/17 10:40:50;;;;;;;3.23;2.27;;;;;;;20.99;62.22;98818.11;125123;1093;64242;-85
2021/08/17 10:43:27;;;;;;;1.93;1.80;;;;;;;21.25;63.20;98814.30;125148;1093;64281;-85
2021/08/17 10:45:59;;;;;;;2.53;1.70;;;;;;;21.69;64.00;98808.34;125146;1093;64188;-84
2021/08/17 10:48:45;;;;;;;3.83;1.93;;;;;;;21.75;61.91;98814.91;125198;1093;64310;-85
2021/08/17 10:51:19;;;;;;;2.37;2.10;;;;;;;21.04;61.85;98826.56;125275;1093;64313;-84
2021/08/17 10:54:16;;;;;;;2.47;2.00;;;;;;;20.68;62.15;98841.53;125351;1091;64294;-84
2021/08/17 10:56:49;;;;;;;2.73;2.07;;;;;;;20.49;62.55;98838.13;125496;1093;64281;-83
2021/08/17 10:59:39;;;;;;;3.83;2.47;;;;;;;20.55;62.26;98832.06;125456;1093;64280;-84
2021/08/17 11:02:09;;;;;;;3.80;2.33;;;;;;;20.49;62.04;98821.05;125181;1093;64373;-84
2021/08/17 11:04:43;;;;;;;2.85;2.40;;;;;;;20.80;62.07;98811.22;125092;1093;64265;-83
2021/08/17 11:07:33;;;;;;;3.10;2.80;;;;;;;20.86;61.58;98822.38;125084;1093;64281;-84
2021/08/17 11:10:04;;;;;;;3.03;2.57;;;;;;;20.85;60.96;98817.96;125076;1093;64274;-84
2021/08/17 11:12:38;;;;;;;2.80;2.50;;;;;;;21.06;61.97;98823.66;125174;1093;64695;-84
2021/08/17 11:15:08;;;;;;;3.10;2.80;;;;;;;21.18;61.06;98827.70;125112;1093;64264;-84
2021/08/17 11:17:36;;;;;;;3.17;2.63;;;;;;;20.88;61.18;98836.58;125125;1093;64246;-84
2021/08/17 11:20:05;;;;;;;3.53;2.67;;;;;;;20.56;61.25;98822.06;125076;1093;64291;-84
2021/08/17 11:22:39;;;;;;;4.55;2.55;;;;;;;20.53;62.50;98828.64;125071;1093;64271;-84
2021/08/17 11:25:09;;;;;;;3.30;3.00;;;;;;;20.59;62.50;98819.05;125040;1093;64241;-84
2021/08/17 11:27:41;;;;;;;3.03;2.40;;;;;;;20.55;62.05;98823.94;125008;1092;64415;-84
2021/08/17 11:30:13;;;;;;;3.50;2.60;;;;;;;20.52;61.41;98832.38;125063;1093;64416;-83
2021/08/17 11:32:48;;;;;;;3.00;2.27;;;;;;;20.58;60.81;98820.88;125053;1093;64303;-84
2021/08/17 11:35:23;;;;;;;4.70;2.70;;;;;;;20.51;61.42;98827.98;125097;1093;64287;-84
2021/08/17 11:37:53;;;;;;;3.10;2.80;;;;;;;20.47;62.00;98818.50;125067;1093;64292;-84
2021/08/17 11:40:23;;;;;;;;;;;;;;;20.57;62.68;98818.36;125116;1093;64185;-84
2021/08/17 11:42:56;;;;;;;2.80;2.60;;;;;;;20.62;62.69;98821.41;125088;1093;64415;-84
2021/08/17 11:45:27;;;;;;;4.10;2.60;;;;;;;20.67;62.54;98820.87;125041;1093;64357;-84
2021/08/17 11:47:57;;;;;;;2.83;2.53;;;;;;;20.54;62.72;98824.13;125062;1093;64238;-84
2021/08/17 11:50:25;;;;;;;3.53;2.83;;;;;;;20.42;63.34;98818.16;124973;1093;64284;-85
2021/08/17 11:52:54;;;;;;;4.47;2.83;;;;;;;20.28;63.14;98826.97;125018;1093;64287;-84
2021/08/17 11:55:27;;;;;;;2.40;2.20;;;;;;;20.24;63.33;98820.19;125037;1092;64271;-84
2021/08/17 11:57:58;;;;;;;3.50;2.43;;;;;;;20.17;62.42;98820.88;125085;1091;64264;-84
2021/08/17 12:00:31;;;;;;;4.20;2.80;;;;;;;20.08;62.75;98831.85;125072;1093;64268;-84
2021/08/17 12:03:05;;;;;;;3.30;2.80;;;;;;;19.99;62.76;98839.13;125017;1092;64245;-84
2021/08/17 12:05:37;;;;;;;3.93;2.57;;;;;;;20.02;62.89;98830.66;125065;1093;64387;-84
2021/08/17 12:08:06;;;;;;;3.10;2.90;;;;;;;20.21;62.40;98831.36;125092;1093;64348;-85
2021/08/17 12:10:36;;;;;;;3.38;2.60;;;;;;;20.43;62.46;98827.96;125037;1093;64284;-85
2021/08/17 12:13:05;;;;;;;4.00;2.43;;;;;;;20.55;60.99;98820.39;125087;1093;64271;-85
2021/08/17 12:15:34;;;;;;;2.50;2.30;;;;;;;20.66;62.00;98820.03;125101;1092;64271;-85
2021/08/17 12:18:16;;;;;;;4.77;2.50;;;;;;;20.85;62.55;98826.93;125038;1093;64424;-85
2021/08/17 12:20:50;;;;;;;5.00;2.40;;;;;;;20.82;62.00;98811.87;125090;1092;64284;-85
2021/08/17 12:23:31;;;;;;;3.07;2.40;;;;;;;20.65;61.96;98820.22;125015;1092;64284;-85
2021/08/17 12:26:14;;;;;;;3.90;2.23;;;;;;;20.26;61.76;98827.13;125056;1092;64377;-85
2021/08/17 12:28:43;;;;;;;2.10;1.73;;;;;;;19.92;61.17;98827.27;125121;1093;64210;-85
2021/08/17 12:31:27;;;;;;;3.18;2.43;;;;;;;19.62;62.63;98812.48;125160;1093;64296;-83
2021/08/17 12:34:04;;;;;;;2.43;2.23;;;;;;;19.43;62.78;98817.16;125008;1093;64338;-84
2021/08/17 12:36:37;;;;;;;3.20;2.80;;;;;;;19.34;63.36;98817.27;125056;1093;64290;-84
2021/08/17 12:39:14;;;;;;;3.60;2.60;;;;;;;19.48;64.22;98803.13;125018;1093;64261;-84
2021/08/17 12:41:53;;;;;;;2.70;2.50;;;;;;;19.71;63.07;98812.34;125040;1092;64357;-85
2021/08/17 12:44:36;;;;;;;4.10;3.07;;;;;;;19.68;62.54;98818.09;125032;1091;64312;-85
2021/08/17 12:47:03;;;;;;;4.53;3.70;;;;;;;19.69;61.50;98817.06;125062;1091;64400;-85
2021/08/17 12:49:50;;;;;;;4.57;3.50;;;;;;;19.74;62.81;98819.28;125065;1093;64244;-85
2021/08/17 12:52:23;;;;;;;3.63;3.10;;;;;;;19.64;62.13;98823.95;125055;1093;64220;-85
2021/08/17 12:54:52;;;;;;;3.83;3.20;;;;;;;19.43;62.05;98827.09;125046;1093;64388;-84
2021/08/17 12:57:22;;;;;;;3.70;3.27;;;;;;;19.31;62.23;98823.84;125092;1093;64241;-85
2021/08/17 12:59:50;;;;;;;4.30;3.20;;;;;;;19.23;61.50;98823.82;125153;1093;64366;-84
2021/08/17 13:02:19;;;;;;;2.83;2.47;;;;;;;19.21;62.07;98829.38;125058;1091;64294;-84
2021/08/17 13:04:46;;;;;;;4.60;3.00;;;;;;;19.21;61.90;98823.97;125351;1092;64235;-85
2021/08/17 13:07:13;;;;;;;4.27;3.03;;;;;;;19.15;61.74;98827.33;125070;1093;64312;-85
2021/08/17 13:09:41;;;;;;;7.63;3.30;;;;;;;19.08;61.86;98823.56;124977;1093;64508;-84
2021/08/17 13:12:08;;;;;;;4.60;3.40;;;;;;;18.96;62.32;98828.42;125057;1092;64386;-84
2021/08/17 13:14:36;;;;;;;5.07;3.90;;;;;;;18.93;62.82;98825.17;125061;1092;64264;-84
2021/08/17 13:17:05;;;;;;;4.97;4.00;;;;;;;18.92;62.50;98823.48;125025;1093;64268;-84
2021/08/17 13:19:33;;;;;;;5.50;3.95;;;;;;;18.94;63.12;98826.88;125043;1093;64191;-84
2021/08/17 13:22:00;;;;;;;4.20;3.80;;;;;;;19.03;63.03;98815.94;125096;1093;64328;-85
2021/08/17 13:24:29;;;;;;;5.47;4.37;;;;;;;19.11;63.09;98817.00;125019;1091;64429;-84
2021/08/17 13:26:58;;;;;;;5.50;5.00;;;;;;;19.12;63.34;98816.85;125067;1092;64188;-83
2021/08/17 13:29:25;;;;;;;4.63;4.23;;;;;;;19.11;63.36;98815.14;125035;1093;64329;-83
2021/08/17 13:31:53;;;;;;;6.63;5.30;;;;;;;19.13;63.48;98821.23;125005;1093;64262;-83
2021/08/17 13:34:22;;;;;;;6.33;5.20;;;;;;;19.16;63.99;98822.77;125056;1093;64329;-84
2021/08/17 13:36:50;;;;;;;6.20;4.57;;;;;;;19.11;63.80;98822.41;125047;1093;64238;-84
2021/08/17 13:39:18;;;;;;;5.15;4.50;;;;;;;19.02;63.99;98814.26;125002;1093;64207;-84
2021/08/17 13:41:46;;;;;;;5.37;4.23;;;;;;;18.83;63.44;98815.34;125064;1093;64424;-85
2021/08/17 13:44:13;;;;;;;5.30;4.30;;;;;;;18.70;63.07;98825.69;125150;1091;64304;-85
2021/08/17 13:46:41;;;;;;;4.37;3.80;;;;;;;18.63;63.04;98824.63;125016;1093;64284;-85
2021/08/17 13:49:09;;;;;;;4.20;3.90;;;;;;;18.56;62.99;98818.16;125010;1093;64658;-85
2021/08/17 13:51:36;;;;;;;4.20;3.80;;;;;;;18.54;64.09;98821.03;125055;1093;64660;-85
2021/08/17 13:54:03;;;;;;;4.20;3.80;;;;;;;18.57;63.30;98820.70;125004;1091;64183;-84
2021/08/17 13:56:31;;;;;;;4.03;3.73;;;;;;;18.65;63.08;98830.72;125055;1093;64268;-84
2021/08/17 13:58:58;;;;;;;4.90;4.20;;;;;;;18.82;63.67;98824.43;125044;1093;64303;-85
2021/08/17 14:01:25;;;;;;;3.87;3.53;;;;;;;19.06;63.25;98826.45;125041;1093;64251;-84
2021/08/17 14:03:53;;;;;;;4.20;3.85;;;;;;;19.42;63.08;98828.11;125024;1093;64262;-84
2021/08/17 14:06:20;;;;;;;4.23;3.80;;;;;;;19.63;62.56;98823.11;125010;1093;64290;-85
2021/08/17 14:08:48;;;;;;;5.33;3.93;;;;;;;19.75;62.09;98823.70;125021;1093;64219;-85
2021/08/17 14:11:18;;;;;;;3.57;3.17;;;;;;;19.89;60.50;98833.85;125057;1093;64351;-84
2021/08/17 14:13:46;;;;;;;3.23;2.93;;;;;;;19.93;60.25;98820.83;125058;1093;64340;-85
2021/08/17 14:16:13;;;;;;;4.57;2.97;;;;;;;20.12;60.61;98814.28;125018;1093;64393;-84
2021/08/17 14:18:43;;;;;;;3.93;2.70;;;;;;;20.43;60.07;98819.84;125028;1093;64306;-85
2021/08/17 14:21:17;;;;;;;3.13;2.87;;;;;;;20.52;58.66;98828.83;125155;1093;64268;-85
2021/08/17 14:23:45;;;;;;;2.90;2.53;;;;;;;20.63;59.15;98822.24;125075;1092;64312;-85
2021/08/17 14:29:55;;;;;;;3.43;2.53;;;;;;;20.86;56.78;98804.26;125050;1092;64268;-85
2021/08/17 14:32:23;;;;;;;2.40;2.20;;;;;;;20.64;58.14;98805.81;125061;1092;64265;-84
2021/08/17 14:34:50;;;;;;;4.07;2.50;;;;;;;20.70;57.88;98809.72;125062;1093;64338;-85
2021/08/17 14:37:17;;;;;;;3.20;2.35;;;;;;;20.73;58.19;98815.63;125012;1092;64310;-84
2021/08/17 14:39:45;;;;;;;2.50;2.10;;;;;;;20.75;58.43;98813.59;125011;1093;64402;-84
2021/08/17 14:42:12;;;;;;;2.87;2.63;;;;;;;20.91;56.88;98812.72;125038;1093;64306;-85
2021/08/17 14:44:39;;;;;;;3.10;2.20;;;;;;;20.91;55.45;98807.30;125073;1093;64344;-84
2021/08/17 14:47:06;;;;;;;1.97;1.70;;;;;;;20.69;55.54;98810.72;125038;1093;64267;-84
2021/08/17 14:49:33;;;;;;;2.67;2.20;;;;;;;20.49;56.60;98807.52;125006;1093;64335;-84
2021/08/17 14:52:01;;;;;;;2.40;2.20;;;;;;;20.32;57.66;98814.78;125045;1093;64278;-83
2021/08/17 14:54:28;;;;;;;4.37;3.30;;;;;;;20.22;57.96;98809.55;124996;1091;64269;-84
2021/08/17 14:56:56;;;;;;;4.83;3.50;;;;;;;20.16;57.57;98816.46;125043;1092;64377;-85
2021/08/17 14:59:24;;;;;;;4.33;2.90;;;;;;;20.14;58.05;98817.64;125022;1092;64281;-85
2021/08/17 15:01:51;;;;;;;3.30;2.50;;;;;;;20.22;58.73;98811.39;125046;1091;64386;-85
2021/08/17 15:04:19;;;;;;;5.60;2.50;;;;;;;20.24;57.86;98822.90;125062;1093;64290;-85
2021/08/17 15:06:48;;;;;;;2.53;2.20;;;;;;;20.38;57.99;98820.38;125051;1093;64210;-85
2021/08/17 15:09:16;;;;;;;2.75;2.50;;;;;;;20.58;58.09;98810.05;125072;1093;64309;-85
2021/08/17 15:11:43;;;;;;;2.73;2.37;;;;;;;20.68;58.49;98812.59;125114;1093;64268;-85
2021/08/17 15:14:11;;;;;;;2.07;1.83;;;;;;;20.75;58.11;98802.77;125029;1093;64193;-85
2021/08/17 15:16:40;;;;;;;2.23;2.03;;;;;;;20.77;57.66;98816.11;125049;1093;64191;-85
2021/08/17 15:19:07;;;;;;;2.07;1.93;;;;;;;20.79;58.02;98817.63;125071;1093;64280;-85
2021/08/17 15:21:37;;;;;;;2.23;2.03;;;;;;;20.81;57.26;98815.61;125115;1093;64351;-85
2021/08/17 15:24:04;;;;;;;2.40;2.20;;;;;;;20.75;57.51;98815.47;125087;1093;64280;-85
2021/08/17 15:26:31;;;;;;;2.47;2.10;;;;;;;20.74;56.98;98811.05;125061;1093;64367;-85
2021/08/17 15:28:58;;;;;;;2.30;1.60;;;;;;;20.75;56.67;98805.47;125039;1093;64769;-86
2021/08/17 15:31:26;;;;;;;1.43;1.33;;;;;;;20.79;56.83;98811.38;125052;1093;64361;-85
2021/08/17 15:33:53;;;;;;;2.43;1.70;;;;;;;20.80;56.28;98810.34;125078;1093;64210;-85
2021/08/17 15:36:20;;;;;;;1.73;1.63;;;;;;;20.78;55.52;98809.70;125095;1091;64238;-85
2021/08/17 15:38:47;;;;;;;3.07;1.70;;;;;;;20.67;55.62;98819.03;125046;1093;64303;-85
2021/08/17 15:41:14;;;;;;;3.13;1.30;;;;;;;20.46;54.55;98821.36;125092;1092;64297;-85
2021/08/17 15:43:44;;;;;;;1.70;1.60;;;;;;;20.27;54.70;98822.55;125047;1092;64440;-85
2021/08/17 15:46:11;;;;;;;1.50;1.20;;;;;;;20.19;55.07;98817.98;125134;1092;64363;-85
2021/08/17 15:48:39;;;;;;;2.80;1.50;;;;;;;20.05;55.26;98821.37;125062;1093;64283;-85
2021/08/17 15:51:07;;;;;;;2.20;1.50;;;;;;;19.79;55.31;98827.74;125055;1092;64459;-85
2021/08/17 15:53:35;;;;;;;2.70;1.70;;;;;;;19.60;55.48;98828.84;125189;1092;64359;-85
2021/08/17 15:56:02;;;;;;;3.27;2.03;;;;;;;19.45;56.12;98825.92;125049;1091;64330;-85
2021/08/17 15:58:29;;;;;;;3.13;2.00;;;;;;;19.41;57.05;98832.67;125038;1093;64265;-84
2021/08/17 16:00:56;;;;;;;3.23;2.07;;;;;;;19.42;56.21;98833.52;125052;1093;64283;-85
2021/08/17 16:03:24;;;;;;;4.83;2.40;;;;;;;19.44;56.21;98826.09;125051;1093;64731;-85
2021/08/17 16:05:51;;;;;;;4.63;2.23;;;;;;;19.49;56.15;98827.30;125048;1092;64434;-85
2021/08/17 16:08:19;;;;;;;2.60;2.40;;;;;;;19.52;56.45;98834.23;125180;1093;64293;-84
2021/08/17 16:10:46;;;;;;;2.87;2.40;;;;;;;19.55;56.64;98824.95;125555;1093;64233;-92
2021/08/17 16:13:14;;;;;;;2.50;2.30;;;;;;;19.55;56.58;98825.80;125162;1093;64249;-87
2021/08/17 16:15:41;;;;;;;3.50;2.77;;;;;;;19.48;56.53;98824.74;124966;1093;64405;-89
2021/08/17 16:18:29;;;;;;;3.67;2.30;;;;;;;19.46;57.10;98818.68;125496;1093;64216;-96
2021/08/17 16:20:56;;;;;;;2.70;2.50;;;;;;;19.47;56.52;98823.06;125456;1093;64202;-96
2021/08/17 16:23:24;;;;;;;2.87;2.60;;;;;;;19.47;56.78;98821.20;125043;1093;64373;-91
2021/08/17 16:25:52;;;;;;;2.30;2.20;;;;;;;19.48;56.63;98822.91;124936;1093;64259;-90
2021/08/17 16:28:19;;;;;;;2.40;2.20;;;;;;;19.43;56.68;98813.58;125065;1093;64445;-85
2021/08/17 16:30:46;;;;;;;4.07;2.67;;;;;;;19.36;57.36;98820.67;125077;1093;64207;-85